Terminal Aerodrome Forecast
Issued by NWS

Home | Current Version | Previous Version | Graphics & Text | Print | Product List | Glossary On
Versions: 1 2 3 4 5 6 7 8 9 10 11 12 13 14 15 16 17
032
FTUS43 KUNR 140520
TAFGCC
TAF
KGCC 140520Z 1406/1506 32020G30KT 5SM -SHSN BKN035 BKN060
      TEMPO 1406/1410 4SM -SHSN BKN025
     FM141000 34020G30KT P6SM SCT015 BKN035
     FM142200 30010KT P6SM SCT100=

USA.gov is the U.S. government's official web portal to all federal, state and local government web resources and services.